createdAt,value
2023-04-23T00:00:03.433Z,179.99
2023-04-23T00:01:03.493Z,183.85
2023-04-23T00:02:03.548Z,174.80
2023-04-23T00:03:03.791Z,181.20
2023-04-23T00:04:03.724Z,184.30
2023-04-23T00:05:03.827Z,181.13
2023-04-23T00:06:03.757Z,179.03
2023-04-23T00:07:03.816Z,185.38
2023-04-23T00:08:03.860Z,181.47
2023-04-23T00:09:03.930Z,188.09
2023-04-23T00:10:03.972Z,195.04
2023-04-23T00:11:04.028Z,194.57
2023-04-23T00:12:04.097Z,186.28
2023-04-23T00:13:04.152Z,187.03
2023-04-23T00:14:04.219Z,183.68
2023-04-23T00:15:04.274Z,190.55
2023-04-23T00:16:04.423Z,185.43
2023-04-23T00:17:04.372Z,194.23
2023-04-23T00:18:04.448Z,197.68
2023-04-23T00:19:04.505Z,180.84
2023-04-23T00:20:04.547Z,187.42
2023-04-23T00:21:04.601Z,183.92
2023-04-23T00:22:04.645Z,183.45
2023-04-23T00:23:04.693Z,178.55
2023-04-23T00:24:04.791Z,174.14
2023-04-23T00:25:04.824Z,180.59
2023-04-23T00:26:04.878Z,174.94
2023-04-23T00:27:04.923Z,185.19
2023-04-23T00:28:04.977Z,191.51
2023-04-23T00:29:05.020Z,190.50
2023-04-23T00:30:05.075Z,187.97
2023-04-23T00:31:05.151Z,179.67
2023-04-23T00:32:05.234Z,188.52
2023-04-23T00:33:05.252Z,177.38
2023-04-23T00:34:05.317Z,182.15
2023-04-23T00:35:05.351Z,191.79
2023-04-23T00:36:05.426Z,188.88
2023-04-23T00:37:05.485Z,189.13
2023-04-23T00:38:05.548Z,185.01
2023-04-23T00:39:05.604Z,183.37
2023-04-23T00:40:05.668Z,185.20
2023-04-23T00:41:05.721Z,192.38
2023-04-23T00:42:05.779Z,185.74
2023-04-23T00:43:05.841Z,185.61
2023-04-23T00:44:05.915Z,188.52
2023-04-23T00:45:05.971Z,185.54
2023-04-23T00:46:06.108Z,179.89
2023-04-23T00:47:06.107Z,183.48
2023-04-23T00:48:06.198Z,169.48
2023-04-23T00:49:06.192Z,179.13
2023-04-23T00:50:06.261Z,175.74
2023-04-23T00:51:06.304Z,176.13
2023-04-23T00:52:06.371Z,181.65
2023-04-23T00:53:06.420Z,183.30
2023-04-23T00:54:06.513Z,182.31
2023-04-23T00:55:06.552Z,181.26
2023-04-23T00:56:06.607Z,189.14
2023-04-23T00:57:06.668Z,187.82
2023-04-23T00:58:06.877Z,177.83
2023-04-23T00:59:06.784Z,170.81
2023-04-23T01:00:06.833Z,179.40
2023-04-23T01:01:06.919Z,181.14
2023-04-23T01:02:06.996Z,179.95
2023-04-23T01:03:07.156Z,185.53
2023-04-23T01:04:07.229Z,187.15
2023-04-23T01:05:07.354Z,183.44
2023-04-23T01:06:07.178Z,185.19
2023-04-23T01:07:07.249Z,179.55
2023-04-23T01:08:07.312Z,191.90
2023-04-23T01:09:07.362Z,187.88
2023-04-23T01:10:07.424Z,188.77
2023-04-23T01:11:07.470Z,186.75
2023-04-23T01:12:07.538Z,182.34
2023-04-23T01:13:07.599Z,186.99
2023-04-23T01:14:07.675Z,189.18
2023-04-23T01:15:07.765Z,185.40
2023-04-23T01:16:07.787Z,188.18
2023-04-23T01:17:07.871Z,181.51
2023-04-23T01:18:07.929Z,171.43
2023-04-23T01:19:07.975Z,171.52
2023-04-23T01:20:08.034Z,177.73
2023-04-23T01:21:08.076Z,172.55
2023-04-23T01:22:08.139Z,175.70
2023-04-23T01:23:08.221Z,181.09
2023-04-23T01:24:08.268Z,194.30
2023-04-23T01:25:08.373Z,185.78
2023-04-23T01:26:08.404Z,175.84
2023-04-23T01:27:08.454Z,178.72
2023-04-23T01:28:08.546Z,180.40
2023-04-23T01:29:08.578Z,184.44
2023-04-23T01:30:08.644Z,173.23
2023-04-23T01:31:08.750Z,181.55
2023-04-23T01:32:08.791Z,184.26
2023-04-23T01:33:08.850Z,186.23
2023-04-23T01:34:08.904Z,187.65
2023-04-23T01:35:08.963Z,178.75
2023-04-23T01:36:09.040Z,177.41
2023-04-23T01:37:09.101Z,177.48
2023-04-23T01:38:09.159Z,173.49
2023-04-23T01:39:09.214Z,172.76
2023-04-23T01:40:09.293Z,167.92
2023-04-23T01:41:09.491Z,171.60
2023-04-23T01:42:09.413Z,172.69
2023-04-23T01:43:09.509Z,180.65
2023-04-23T01:44:09.537Z,171.64
2023-04-23T01:45:09.603Z,173.34
2023-04-23T01:46:09.699Z,185.22
2023-04-23T01:47:09.713Z,182.21
2023-04-23T01:48:09.780Z,172.53
2023-04-23T01:49:09.824Z,180.58
2023-04-23T01:50:09.908Z,189.38
2023-04-23T01:51:09.947Z,185.73
2023-04-23T01:52:10.011Z,187.53
2023-04-23T01:53:10.083Z,190.74
2023-04-23T01:54:10.144Z,186.33
2023-04-23T01:55:10.196Z,190.69
2023-04-23T01:56:10.259Z,188.30
2023-04-23T01:57:10.331Z,193.53
2023-04-23T01:58:10.393Z,193.56
2023-04-23T01:59:10.468Z,190.87
2023-04-23T02:00:10.510Z,198.66
2023-04-23T02:01:10.620Z,203.32
2023-04-23T02:02:10.676Z,202.82
2023-04-23T02:03:10.881Z,203.21
2023-04-23T02:04:10.848Z,199.69
2023-04-23T02:05:10.832Z,205.08
2023-04-23T02:06:10.880Z,201.63
2023-04-23T02:07:10.942Z,204.40
2023-04-23T02:08:11.023Z,205.18
2023-04-23T02:09:11.065Z,199.46
2023-04-23T02:10:11.144Z,200.31
2023-04-23T02:11:11.190Z,207.61
2023-04-23T02:12:11.251Z,201.40
2023-04-23T02:13:11.335Z,203.06
2023-04-23T02:14:11.397Z,199.12
2023-04-23T02:15:11.464Z,199.72
2023-04-23T02:16:11.559Z,199.15
2023-04-23T02:17:11.566Z,200.46
2023-04-23T02:18:11.655Z,196.86
2023-04-23T02:19:12.625Z,205.09
2023-04-23T02:20:11.779Z,201.42
2023-04-23T02:21:11.845Z,204.88
2023-04-23T02:22:11.903Z,205.02
2023-04-23T02:23:11.939Z,198.14
2023-04-23T02:24:12.064Z,211.24
2023-04-23T02:25:12.062Z,206.65
2023-04-23T02:26:12.144Z,211.21
2023-04-23T02:27:12.203Z,212.99
2023-04-23T02:28:12.251Z,208.69
2023-04-23T02:29:12.308Z,204.55
2023-04-23T02:30:12.380Z,210.76
2023-04-23T02:31:12.450Z,208.45
2023-04-23T02:32:12.488Z,210.15
2023-04-23T02:33:12.569Z,210.53
2023-04-23T02:34:12.629Z,212.32
2023-04-23T02:35:12.720Z,208.65
2023-04-23T02:36:12.746Z,208.47
2023-04-23T02:37:12.795Z,205.16
2023-04-23T02:38:12.868Z,202.75
2023-04-23T02:39:12.923Z,204.00
2023-04-23T02:40:12.970Z,219.60
2023-04-23T02:41:13.009Z,221.36
2023-04-23T02:42:13.067Z,223.92
2023-04-23T02:43:13.132Z,216.17
2023-04-23T02:44:13.148Z,214.45
2023-04-23T02:45:13.227Z,206.70
2023-04-23T02:46:13.287Z,213.27
2023-04-23T02:47:13.299Z,216.87
2023-04-23T02:48:13.358Z,219.76
2023-04-23T02:49:13.405Z,225.41
2023-04-23T02:50:13.447Z,224.47
2023-04-23T02:51:13.497Z,223.23
2023-04-23T02:52:13.543Z,223.02
2023-04-23T02:53:13.604Z,224.80
2023-04-23T02:54:13.654Z,226.18
2023-04-23T02:55:13.716Z,227.40
2023-04-23T02:56:13.765Z,219.80
2023-04-23T02:57:13.829Z,223.37
2023-04-23T02:58:13.901Z,222.86
2023-04-23T02:59:13.928Z,216.12
2023-04-23T03:00:13.988Z,212.86
2023-04-23T03:01:14.075Z,213.50
2023-04-23T03:02:14.173Z,218.47
2023-04-23T03:03:14.307Z,220.77
2023-04-23T03:04:14.231Z,214.98
2023-04-23T03:05:14.242Z,209.44
2023-04-23T03:06:14.301Z,227.49
2023-04-23T03:07:14.339Z,222.90
2023-04-23T03:08:14.422Z,210.77
2023-04-23T03:09:14.448Z,213.29
2023-04-23T03:10:14.547Z,203.50
2023-04-23T03:11:14.595Z,214.25
2023-04-23T03:12:14.647Z,223.51
2023-04-23T03:13:14.734Z,229.57
2023-04-23T03:14:14.776Z,226.43
2023-04-23T03:15:14.864Z,226.19
2023-04-23T03:16:14.970Z,232.66
2023-04-23T03:17:14.980Z,228.09
2023-04-23T03:18:15.034Z,229.09
2023-04-23T03:19:15.108Z,225.75
2023-04-23T03:20:15.168Z,233.26
2023-04-23T03:21:15.230Z,227.29
2023-04-23T03:22:15.280Z,232.28
2023-04-23T03:23:15.411Z,230.67
2023-04-23T03:24:15.431Z,230.50
2023-04-23T03:25:15.478Z,235.96
2023-04-23T03:26:15.526Z,238.01
2023-04-23T03:27:15.612Z,241.23
2023-04-23T03:28:15.676Z,240.42
2023-04-23T03:29:15.726Z,240.52
2023-04-23T03:30:15.771Z,238.67
2023-04-23T03:31:15.929Z,237.98
2023-04-23T03:32:15.915Z,242.93
2023-04-23T03:33:15.983Z,242.94
2023-04-23T03:34:16.049Z,246.21
2023-04-23T03:35:16.106Z,245.14
2023-04-23T03:36:16.170Z,248.42
2023-04-23T03:37:16.205Z,248.07
2023-04-23T03:38:16.278Z,245.57
2023-04-23T03:39:16.321Z,240.33
2023-04-23T03:40:16.400Z,249.56
2023-04-23T03:41:16.443Z,250.00
2023-04-23T03:42:16.523Z,249.81
2023-04-23T03:43:16.558Z,247.26
2023-04-23T03:44:16.625Z,245.52
2023-04-23T03:45:16.685Z,246.36
2023-04-23T03:46:16.808Z,248.95
2023-04-23T03:47:16.806Z,248.95
2023-04-23T03:48:16.863Z,250.00
2023-04-23T03:49:16.938Z,243.23
2023-04-23T03:50:16.961Z,237.28
2023-04-23T03:51:17.029Z,236.56
2023-04-23T03:52:17.075Z,241.97
2023-04-23T03:53:17.164Z,237.20
2023-04-23T03:54:17.221Z,240.21
2023-04-23T03:55:17.265Z,245.73
2023-04-23T03:56:17.353Z,241.90
2023-04-23T03:57:17.388Z,244.27
2023-04-23T03:58:17.451Z,248.09
2023-04-23T03:59:17.529Z,245.29
2023-04-23T04:00:17.589Z,249.12
2023-04-23T04:01:17.645Z,250.00
2023-04-23T04:02:17.753Z,242.69
2023-04-23T04:03:17.934Z,246.07
2023-04-23T04:04:18.044Z,243.26
2023-04-23T04:05:18.140Z,244.85
2023-04-23T04:06:17.926Z,244.74
2023-04-23T04:07:17.999Z,247.99
2023-04-23T04:08:18.028Z,248.55
2023-04-23T04:09:18.096Z,245.98
2023-04-23T04:10:18.158Z,246.16
2023-04-23T04:11:18.225Z,240.25
2023-04-23T04:12:18.266Z,242.79
2023-04-23T04:13:18.323Z,240.69
2023-04-23T04:14:18.382Z,242.80
2023-04-23T04:15:18.459Z,232.75
2023-04-23T04:16:18.522Z,230.79
2023-04-23T04:17:18.577Z,233.67
2023-04-23T04:18:18.633Z,238.00
2023-04-23T04:19:18.706Z,231.24
2023-04-23T04:20:18.886Z,229.83
2023-04-23T04:21:18.838Z,238.44
2023-04-23T04:22:18.930Z,235.65
2023-04-23T04:23:18.963Z,231.99
2023-04-23T04:24:19.026Z,234.62
2023-04-23T04:25:19.095Z,234.29
2023-04-23T04:26:19.164Z,240.18
2023-04-23T04:27:19.206Z,233.54
2023-04-23T04:28:19.270Z,244.26
2023-04-23T04:29:19.333Z,240.49
2023-04-23T04:30:19.395Z,237.16
2023-04-23T04:31:19.470Z,234.34
2023-04-23T04:32:19.528Z,231.32
2023-04-23T04:33:19.586Z,230.46
2023-04-23T04:34:19.641Z,229.99
2023-04-23T04:35:19.682Z,228.86
2023-04-23T04:36:19.750Z,228.49
2023-04-23T04:37:19.818Z,232.24
2023-04-23T04:38:19.911Z,228.46
2023-04-23T04:39:19.952Z,232.95
2023-04-23T04:40:19.992Z,237.65
2023-04-23T04:41:20.045Z,239.98
2023-04-23T04:42:20.112Z,242.53
2023-04-23T04:43:20.179Z,239.07
2023-04-23T04:44:20.234Z,244.13
2023-04-23T04:45:20.285Z,247.01
2023-04-23T04:46:20.399Z,243.95
2023-04-23T04:47:20.478Z,245.10
2023-04-23T04:48:20.509Z,243.61
2023-04-23T04:49:20.539Z,243.80
2023-04-23T04:50:20.582Z,243.94
2023-04-23T04:51:20.673Z,237.19
2023-04-23T04:52:20.701Z,243.52
2023-04-23T04:53:20.764Z,237.64
2023-04-23T04:54:20.815Z,238.32
2023-04-23T04:55:20.894Z,241.22
2023-04-23T04:56:20.935Z,241.23
2023-04-23T04:57:21.031Z,240.89
2023-04-23T04:58:21.080Z,238.87
2023-04-23T04:59:21.147Z,242.46
2023-04-23T05:00:21.214Z,241.98
2023-04-23T05:01:21.306Z,245.85
2023-04-23T05:02:21.630Z,242.01
2023-04-23T05:03:21.577Z,244.35
2023-04-23T05:04:21.496Z,236.98
2023-04-23T05:05:21.491Z,241.76
2023-04-23T05:06:21.585Z,249.63
2023-04-23T05:07:21.638Z,247.05
2023-04-23T05:08:21.690Z,249.28
2023-04-23T05:09:21.765Z,246.80
2023-04-23T05:10:21.850Z,243.37
2023-04-23T05:11:21.876Z,245.05
2023-04-23T05:12:21.952Z,246.96
2023-04-23T05:13:21.997Z,241.07
2023-04-23T05:14:22.059Z,235.87
2023-04-23T05:15:22.112Z,233.91
2023-04-23T05:16:22.210Z,234.22
2023-04-23T05:17:22.305Z,229.70
2023-04-23T05:18:22.316Z,234.16
2023-04-23T05:19:22.351Z,236.98
2023-04-23T05:20:22.407Z,245.97
2023-04-23T05:21:22.482Z,242.69
2023-04-23T05:22:22.553Z,243.87
2023-04-23T05:23:22.601Z,242.67
2023-04-23T05:24:22.679Z,244.26
2023-04-23T05:25:22.751Z,247.12
2023-04-23T05:26:22.773Z,241.24
2023-04-23T05:27:22.839Z,238.89
2023-04-23T05:28:22.905Z,238.04
2023-04-23T05:29:22.943Z,238.98
2023-04-23T05:30:23.033Z,231.30
2023-04-23T05:31:23.137Z,232.89
2023-04-23T05:32:23.222Z,230.74
2023-04-23T05:33:23.198Z,232.57
2023-04-23T05:34:23.280Z,234.25
2023-04-23T05:35:23.302Z,235.63
2023-04-23T05:36:23.408Z,237.34
2023-04-23T05:37:23.453Z,237.47
2023-04-23T05:38:23.518Z,238.79
2023-04-23T05:39:23.568Z,241.10
2023-04-23T05:40:23.643Z,240.32
2023-04-23T05:41:23.675Z,235.61
2023-04-23T05:42:23.757Z,235.66
2023-04-23T05:43:23.985Z,233.61
2023-04-23T05:44:23.879Z,235.86
2023-04-23T05:45:23.930Z,238.21
2023-04-23T05:46:24.054Z,241.60
2023-04-23T05:47:24.092Z,245.41
2023-04-23T05:48:24.139Z,249.06
2023-04-23T05:49:24.182Z,239.92
2023-04-23T05:50:24.228Z,239.48
2023-04-23T05:51:24.288Z,239.28
2023-04-23T05:52:24.366Z,238.70
2023-04-23T05:53:24.420Z,237.00
2023-04-23T05:54:24.492Z,235.50
2023-04-23T05:55:24.559Z,235.98
2023-04-23T05:56:24.632Z,234.95
2023-04-23T05:57:24.662Z,238.04
2023-04-23T05:58:24.752Z,233.36
2023-04-23T05:59:24.797Z,231.75
2023-04-23T06:00:24.839Z,236.18
2023-04-23T06:01:24.897Z,233.25
2023-04-23T06:02:25.302Z,238.55
2023-04-23T06:03:25.249Z,239.61
2023-04-23T06:04:25.213Z,234.59
2023-04-23T06:05:25.284Z,233.45
2023-04-23T06:06:25.204Z,233.57
2023-04-23T06:07:25.253Z,229.22
2023-04-23T06:08:25.445Z,228.82
2023-04-23T06:09:25.371Z,228.56
2023-04-23T06:10:25.446Z,230.92
2023-04-23T06:11:25.481Z,228.98
2023-04-23T06:12:25.536Z,228.73
2023-04-23T06:13:25.602Z,231.42
2023-04-23T06:14:25.676Z,234.04
2023-04-23T06:15:25.727Z,232.33
2023-04-23T06:16:25.942Z,235.92
2023-04-23T06:17:25.815Z,228.55
2023-04-23T06:18:25.876Z,228.03
2023-04-23T06:19:25.948Z,229.05
2023-04-23T06:20:26.018Z,226.30
2023-04-23T06:21:26.039Z,228.67
2023-04-23T06:22:26.094Z,229.04
2023-04-23T06:23:26.169Z,223.88
2023-04-23T06:24:26.219Z,224.44
2023-04-23T06:25:26.265Z,224.90
2023-04-23T06:26:26.329Z,226.48
2023-04-23T06:27:26.379Z,226.00
2023-04-23T06:28:26.457Z,225.97
2023-04-23T06:29:26.495Z,226.90
2023-04-23T06:30:26.565Z,224.91
2023-04-23T06:31:26.701Z,224.75
2023-04-23T06:32:26.677Z,223.61
2023-04-23T06:33:26.752Z,222.73
2023-04-23T06:34:26.803Z,223.64
2023-04-23T06:35:26.843Z,218.71
2023-04-23T06:36:26.896Z,221.20
2023-04-23T06:37:29.222Z,222.77
2023-04-23T06:38:26.969Z,223.03
2023-04-23T06:39:26.965Z,219.67
2023-04-23T06:40:26.999Z,221.79
2023-04-23T06:41:26.919Z,216.98
2023-04-23T06:42:26.907Z,219.09
2023-04-23T06:43:26.919Z,214.53
2023-04-23T06:44:26.940Z,219.02
2023-04-23T06:45:26.892Z,219.49
2023-04-23T06:46:26.920Z,214.61
2023-04-23T06:47:26.878Z,215.23
2023-04-23T06:48:26.887Z,216.34
2023-04-23T06:49:26.881Z,215.47
2023-04-23T06:50:26.911Z,218.29
2023-04-23T06:51:26.855Z,216.87
2023-04-23T06:52:26.868Z,214.48
2023-04-23T06:53:26.858Z,214.34
2023-04-23T06:54:26.849Z,215.05
2023-04-23T06:55:26.841Z,213.87
2023-04-23T06:56:26.813Z,210.39
2023-04-23T06:57:26.825Z,212.13
2023-04-23T06:58:26.852Z,213.86
2023-04-23T06:59:26.796Z,209.69
2023-04-23T07:00:26.886Z,211.31
2023-04-23T07:01:26.849Z,209.66
2023-04-23T07:02:26.880Z,212.04
2023-04-23T07:03:26.816Z,212.66
2023-04-23T07:04:26.843Z,207.87
2023-04-23T07:05:26.768Z,206.89
2023-04-23T07:06:26.782Z,210.37
2023-04-23T07:07:26.763Z,210.01
2023-04-23T07:08:26.790Z,209.38
2023-04-23T07:09:26.741Z,206.18
2023-04-23T07:10:26.757Z,207.74
2023-04-23T07:11:26.742Z,211.31
2023-04-23T07:12:26.806Z,206.56
2023-04-23T07:13:26.731Z,207.38
2023-04-23T07:14:26.707Z,207.00
2023-04-23T07:15:26.724Z,206.48
2023-04-23T07:16:26.788Z,201.04
2023-04-23T07:17:26.731Z,201.38
2023-04-23T07:18:26.694Z,199.94
2023-04-23T07:19:26.719Z,205.28
2023-04-23T07:20:26.790Z,202.38
2023-04-23T07:21:26.819Z,200.87
2023-04-23T07:22:27.783Z,199.71
2023-04-23T07:23:27.021Z,198.31
2023-04-23T07:24:27.030Z,198.49
2023-04-23T07:25:27.096Z,199.57
2023-04-23T07:26:27.122Z,195.64
2023-04-23T07:27:27.171Z,194.85
2023-04-23T07:28:27.207Z,196.80
2023-04-23T07:29:27.247Z,194.43
2023-04-23T07:30:27.297Z,188.66
2023-04-23T07:31:27.339Z,180.57
2023-04-23T07:32:27.400Z,179.21
2023-04-23T07:33:27.417Z,180.12
2023-04-23T07:34:27.433Z,179.78
2023-04-23T07:35:27.477Z,178.02
2023-04-23T07:36:27.495Z,177.42
2023-04-23T07:37:27.524Z,174.16
2023-04-23T07:38:27.554Z,166.69
2023-04-23T07:39:27.565Z,162.54
2023-04-23T07:40:27.729Z,161.58
2023-04-23T07:41:27.577Z,167.14
2023-04-23T07:42:27.640Z,168.94
2023-04-23T07:43:27.656Z,172.45
2023-04-23T07:44:27.651Z,161.77
2023-04-23T07:45:27.660Z,163.90
2023-04-23T07:46:27.694Z,168.29
2023-04-23T07:47:27.708Z,176.74
2023-04-23T07:48:27.689Z,182.21
2023-04-23T07:49:27.771Z,185.12
2023-04-23T07:50:27.835Z,188.21
2023-04-23T07:51:27.896Z,178.72
2023-04-23T07:52:27.944Z,182.88
2023-04-23T07:53:28.009Z,177.95
2023-04-23T07:54:28.053Z,168.26
2023-04-23T07:55:28.125Z,167.90
2023-04-23T07:56:28.182Z,158.11
2023-04-23T07:57:28.221Z,145.33
2023-04-23T07:58:28.313Z,159.54
2023-04-23T07:59:28.360Z,160.90
2023-04-23T08:00:28.438Z,151.00
2023-04-23T08:01:28.474Z,159.80
2023-04-23T08:02:28.714Z,158.51
2023-04-23T08:03:28.942Z,162.34
2023-04-23T08:04:28.959Z,167.53
2023-04-23T08:05:28.756Z,168.91
2023-04-23T08:06:28.755Z,163.80
2023-04-23T08:07:28.832Z,170.28
2023-04-23T08:08:28.887Z,162.47
2023-04-23T08:09:28.956Z,160.03
2023-04-23T08:10:28.989Z,163.70
2023-04-23T08:11:29.061Z,164.83
2023-04-23T08:12:29.123Z,163.70
2023-04-23T08:13:29.189Z,162.59
2023-04-23T08:14:29.249Z,169.02
2023-04-23T08:15:29.302Z,181.44
2023-04-23T08:16:30.383Z,174.97
2023-04-23T08:17:29.431Z,181.69
2023-04-23T08:18:29.480Z,193.57
2023-04-23T08:19:29.527Z,185.82
2023-04-23T08:20:29.603Z,184.39
2023-04-23T08:21:29.760Z,182.83
2023-04-23T08:22:29.733Z,178.74
2023-04-23T08:23:29.789Z,177.65
2023-04-23T08:24:29.838Z,179.63
2023-04-23T08:25:29.904Z,178.54
2023-04-23T08:26:29.963Z,180.21
2023-04-23T08:27:30.030Z,178.35
2023-04-23T08:28:30.087Z,187.77
2023-04-23T08:29:30.158Z,192.79
2023-04-23T08:30:30.253Z,193.43
2023-04-23T08:31:30.316Z,193.55
2023-04-23T08:32:30.355Z,187.69
2023-04-23T08:33:30.401Z,189.60
2023-04-23T08:34:30.437Z,194.47
2023-04-23T08:35:30.508Z,195.21
2023-04-23T08:36:30.560Z,186.60
2023-04-23T08:37:31.617Z,199.08
2023-04-23T08:38:30.675Z,198.32
2023-04-23T08:39:30.709Z,203.89
2023-04-23T08:40:30.773Z,197.69
2023-04-23T08:41:30.822Z,192.57
2023-04-23T08:42:30.882Z,193.57
2023-04-23T08:43:30.948Z,187.94
2023-04-23T08:44:30.999Z,189.78
2023-04-23T08:45:31.068Z,194.22
2023-04-23T08:46:31.130Z,193.77
2023-04-23T08:47:31.221Z,193.82
2023-04-23T08:48:31.239Z,196.54
2023-04-23T08:49:31.288Z,192.15
2023-04-23T08:50:31.342Z,188.34
2023-04-23T08:51:31.404Z,186.85
2023-04-23T08:52:31.459Z,188.21
2023-04-23T08:53:31.526Z,189.01
2023-04-23T08:54:31.576Z,191.35
2023-04-23T08:55:31.619Z,193.08
2023-04-23T08:56:31.669Z,193.74
2023-04-23T08:57:31.722Z,200.52
2023-04-23T08:58:31.787Z,202.98
2023-04-23T08:59:31.862Z,203.62
2023-04-23T09:00:31.996Z,204.72
2023-04-23T09:01:31.927Z,203.17
2023-04-23T09:02:32.102Z,202.13
2023-04-23T09:03:32.110Z,203.61
2023-04-23T09:04:32.120Z,196.32
2023-04-23T09:05:32.158Z,195.06
2023-04-23T09:06:32.192Z,194.53
2023-04-23T09:07:32.261Z,188.44
2023-04-23T09:08:32.305Z,181.43
2023-04-23T09:09:32.363Z,186.42
2023-04-23T09:10:32.448Z,188.84
2023-04-23T09:11:32.473Z,188.06
2023-04-23T09:12:32.553Z,176.77
2023-04-23T09:13:32.584Z,178.70
2023-04-23T09:14:32.657Z,174.82
2023-04-23T09:15:32.697Z,171.75
2023-04-23T09:16:32.789Z,181.13
2023-04-23T09:17:32.860Z,178.83
2023-04-23T09:18:32.872Z,174.50
2023-04-23T09:19:32.939Z,173.86
2023-04-23T09:20:33.005Z,177.26
2023-04-23T09:21:33.056Z,173.17
2023-04-23T09:22:33.120Z,173.41
2023-04-23T09:23:33.162Z,172.91
2023-04-23T09:24:33.229Z,176.46
2023-04-23T09:25:33.289Z,176.11
2023-04-23T09:26:33.343Z,182.57
2023-04-23T09:27:33.435Z,169.94
2023-04-23T09:28:33.462Z,175.06
2023-04-23T09:29:33.528Z,176.58
2023-04-23T09:30:33.572Z,178.50
2023-04-23T09:31:33.642Z,172.39
2023-04-23T09:32:33.700Z,166.55
2023-04-23T09:33:33.748Z,178.19
2023-04-23T09:34:33.813Z,181.09
2023-04-23T09:35:33.879Z,182.31
2023-04-23T09:36:33.920Z,173.41
2023-04-23T09:37:33.996Z,167.10
2023-04-23T09:38:34.043Z,172.36
2023-04-23T09:39:34.103Z,173.63
2023-04-23T09:40:34.178Z,157.51
2023-04-23T09:41:34.245Z,169.22
2023-04-23T09:42:34.281Z,169.29
2023-04-23T09:43:34.353Z,176.27
2023-04-23T09:44:34.420Z,177.01
2023-04-23T09:45:34.481Z,183.36
2023-04-23T09:46:34.522Z,171.02
2023-04-23T09:47:34.600Z,168.68
2023-04-23T09:48:34.634Z,171.57
2023-04-23T09:49:34.693Z,166.14
2023-04-23T09:50:34.778Z,172.65
2023-04-23T09:51:34.817Z,169.81
2023-04-23T09:52:34.872Z,170.36
2023-04-23T09:53:34.934Z,172.33
2023-04-23T09:54:35.049Z,173.14
2023-04-23T09:55:35.133Z,186.62
2023-04-23T09:56:35.125Z,175.01
2023-04-23T09:57:35.164Z,169.06
2023-04-23T09:58:35.228Z,165.69
2023-04-23T09:59:46.651Z,159.72
2023-04-23T10:00:36.301Z,154.89
2023-04-23T10:01:35.310Z,151.16
2023-04-23T10:02:35.378Z,150.70
2023-04-23T10:03:35.357Z,153.53
2023-04-23T10:04:35.484Z,160.49
2023-04-23T10:05:45.401Z,153.66
2023-04-23T10:06:42.320Z,153.95
2023-04-23T10:07:36.242Z,153.86
2023-04-23T10:08:35.242Z,143.06
2023-04-23T10:09:35.226Z,134.88
2023-04-23T10:10:40.613Z,127.40
2023-04-23T10:11:36.227Z,132.81
2023-04-23T10:12:52.111Z,130.40
2023-04-23T10:13:36.228Z,140.75
2023-04-23T10:14:35.203Z,144.37
2023-04-23T10:15:35.220Z,138.10
2023-04-23T10:16:46.031Z,138.73
2023-04-23T10:17:36.258Z,150.86
2023-04-23T10:18:35.202Z,148.93
2023-04-23T10:19:35.166Z,135.32
2023-04-23T10:20:35.174Z,139.67
2023-04-23T10:21:42.968Z,147.51
2023-04-23T10:22:36.148Z,151.13
2023-04-23T10:23:35.148Z,148.22
2023-04-23T10:24:35.146Z,143.48
2023-04-23T10:25:35.127Z,150.01
2023-04-23T10:26:35.122Z,150.99
2023-04-23T10:27:48.441Z,158.91
2023-04-23T10:28:36.112Z,159.15
2023-04-23T10:29:35.104Z,160.00
2023-04-23T10:30:35.080Z,159.51
2023-04-23T10:31:35.111Z,158.87
2023-04-23T10:32:35.091Z,154.29
2023-04-23T10:33:42.641Z,148.39
2023-04-23T10:34:36.082Z,148.62
2023-04-23T10:35:35.059Z,149.46
2023-04-23T10:36:35.062Z,147.54
2023-04-23T10:37:35.040Z,143.90
2023-04-23T10:38:35.229Z,132.02
2023-04-23T10:39:35.028Z,118.37
2023-04-23T10:40:35.013Z,109.32
2023-04-23T10:41:35.031Z,109.93
2023-04-23T10:42:35.053Z,103.38
2023-04-23T10:43:35.127Z,82.73
2023-04-23T10:44:56.578Z,84.49
2023-04-23T10:45:36.168Z,84.97
2023-04-23T10:46:37.906Z,88.26
2023-04-23T10:47:35.138Z,85.46
2023-04-23T10:48:35.167Z,89.06
2023-04-23T10:49:35.135Z,97.39
2023-04-23T10:50:35.112Z,111.14
2023-04-23T10:52:36.091Z,86.37
2023-04-23T10:53:35.111Z,92.01
2023-04-23T10:54:35.108Z,94.90
2023-04-23T10:55:35.084Z,96.22
2023-04-23T10:56:35.068Z,94.14
2023-04-23T10:57:35.073Z,96.12
2023-04-23T10:58:35.065Z,85.41
2023-04-23T10:59:35.104Z,90.04
2023-04-23T11:00:35.059Z,94.19
2023-04-23T11:01:35.165Z,99.11
2023-04-23T11:02:35.268Z,91.77
2023-04-23T11:03:35.350Z,91.26
2023-04-23T11:04:35.390Z,94.80
2023-04-23T11:05:35.394Z,87.32
2023-04-23T11:06:35.438Z,80.65
2023-04-23T11:07:35.512Z,74.03
2023-04-23T11:08:35.568Z,87.42
2023-04-23T11:09:35.646Z,98.44
2023-04-23T11:10:35.669Z,116.48
2023-04-23T11:11:35.723Z,127.08
2023-04-23T11:12:35.855Z,116.87
2023-04-23T11:13:35.856Z,88.31
2023-04-23T11:14:35.924Z,81.03
2023-04-23T11:15:35.973Z,86.38
2023-04-23T11:16:36.069Z,86.30
2023-04-23T11:17:36.152Z,87.36
2023-04-23T11:18:36.184Z,86.51
2023-04-23T11:19:36.246Z,82.64
2023-04-23T11:20:36.300Z,83.82
2023-04-23T11:21:36.374Z,85.47
2023-04-23T11:22:36.431Z,79.16
2023-04-23T11:23:36.511Z,85.62
2023-04-23T11:24:36.550Z,85.24
2023-04-23T11:25:36.627Z,84.73
2023-04-23T11:26:36.680Z,85.24
2023-04-23T11:27:36.750Z,86.86
2023-04-23T11:28:36.834Z,93.22
2023-04-23T11:29:36.884Z,94.05
2023-04-23T11:30:36.944Z,96.04
2023-04-23T11:31:39.307Z,93.90
2023-04-23T11:32:38.046Z,94.09
2023-04-23T11:33:36.993Z,94.97
2023-04-23T11:34:37.035Z,93.50
2023-04-23T11:35:37.011Z,85.65
2023-04-23T11:36:36.991Z,89.66
2023-04-23T11:37:36.965Z,90.71
2023-04-23T11:38:36.958Z,85.70
2023-04-23T11:39:36.963Z,92.04
2023-04-23T11:40:36.948Z,99.52
2023-04-23T11:41:37.019Z,122.37
2023-04-23T11:42:37.077Z,134.67
2023-04-23T11:43:37.126Z,152.14
2023-04-23T11:44:37.200Z,162.28
2023-04-23T11:45:37.343Z,161.71
2023-04-23T11:46:37.309Z,150.38
2023-04-23T11:47:37.385Z,162.66
2023-04-23T11:48:37.453Z,167.00
2023-04-23T11:49:37.674Z,168.65
2023-04-23T11:50:37.572Z,162.64
2023-04-23T11:51:37.653Z,146.66
2023-04-23T11:52:39.606Z,137.86
2023-04-23T11:53:37.759Z,155.35
2023-04-23T11:54:37.830Z,163.20
2023-04-23T11:55:37.869Z,159.67
2023-04-23T11:56:37.941Z,157.69
2023-04-23T11:57:38.010Z,148.52
2023-04-23T11:58:39.364Z,136.01
2023-04-23T11:59:38.156Z,121.91
2023-04-23T12:00:38.180Z,117.06
2023-04-23T12:01:38.247Z,110.31
2023-04-23T12:02:38.448Z,109.16
2023-04-23T12:03:38.486Z,108.89
2023-04-23T12:04:41.083Z,108.06
2023-04-23T12:05:38.439Z,106.58
2023-04-23T12:06:38.376Z,107.48
2023-04-23T12:07:38.380Z,100.27
2023-04-23T12:08:38.360Z,98.89
2023-04-23T12:09:38.365Z,108.11
2023-04-23T12:10:38.338Z,116.73
2023-04-23T12:11:38.334Z,112.31
2023-04-23T12:12:38.328Z,115.75
2023-04-23T12:13:38.319Z,108.23
2023-04-23T12:14:38.338Z,89.67
2023-04-23T12:15:38.325Z,90.13
2023-04-23T12:16:38.361Z,94.26
2023-04-23T12:17:38.302Z,98.08
2023-04-23T12:18:38.310Z,103.12
2023-04-23T12:19:38.339Z,108.53
2023-04-23T12:20:38.285Z,112.29
2023-04-23T12:21:38.284Z,117.03
2023-04-23T12:22:38.280Z,119.80
2023-04-23T12:23:38.269Z,112.92
2023-04-23T12:24:38.264Z,116.44
2023-04-23T12:25:38.265Z,124.65
2023-04-23T12:26:39.790Z,126.26
2023-04-23T12:27:38.264Z,111.90
2023-04-23T12:28:38.252Z,112.47
2023-04-23T12:29:38.239Z,116.73
2023-04-23T12:30:38.225Z,115.68
2023-04-23T12:31:38.261Z,112.27